createdAt,value
2023-04-19T00:00:45.234Z,375.67
2023-04-19T00:03:12.129Z,375.67
2023-04-19T00:05:39.576Z,368.38
2023-04-19T00:08:06.403Z,355.02
2023-04-19T00:10:33.128Z,353.58
2023-04-19T00:12:59.653Z,354.90
2023-04-19T00:15:26.292Z,340.75
2023-04-19T00:17:53.044Z,335.33
2023-04-19T00:20:20.287Z,327.95
2023-04-19T00:22:47.118Z,327.15
2023-04-19T00:25:13.759Z,318.50
2023-04-19T00:27:40.319Z,306.63
2023-04-19T00:30:06.858Z,303.83
2023-04-19T00:32:33.442Z,306.67
2023-04-19T00:35:00.359Z,295.40
2023-04-19T00:37:27.747Z,300.65
2023-04-19T00:39:54.446Z,291.48
2023-04-19T00:42:21.128Z,278.60
2023-04-19T00:44:47.988Z,276.35
2023-04-19T00:47:14.528Z,269.45
2023-04-19T00:49:41.200Z,268.92
2023-04-19T00:52:07.639Z,269.00
2023-04-19T00:54:34.149Z,259.38
2023-04-19T00:57:00.616Z,254.68
2023-04-19T00:59:27.061Z,254.35
2023-04-19T01:01:53.687Z,250.38
2023-04-19T01:04:20.946Z,242.73
2023-04-19T01:06:49.325Z,235.90
2023-04-19T01:09:16.378Z,227.27
2023-04-19T01:11:43.632Z,234.68
2023-04-19T01:14:10.416Z,229.35
2023-04-19T01:16:37.099Z,219.30
2023-04-19T01:19:03.654Z,229.82
2023-04-19T01:21:30.774Z,217.30
2023-04-19T01:23:57.291Z,222.30
2023-04-19T01:26:23.857Z,214.93
2023-04-19T01:28:50.353Z,209.55
2023-04-19T01:31:16.862Z,207.80
2023-04-19T01:33:43.353Z,203.25
2023-04-19T01:36:09.870Z,196.93
2023-04-19T01:38:36.401Z,195.20
2023-04-19T01:41:02.928Z,188.45
2023-04-19T01:43:29.771Z,189.65
2023-04-19T01:45:56.250Z,187.38
2023-04-19T01:48:23.086Z,179.82
2023-04-19T01:50:49.574Z,180.40
2023-04-19T01:53:16.074Z,173.05
2023-04-19T01:55:42.768Z,175.65
2023-04-19T01:58:09.229Z,167.00
2023-04-19T02:00:35.926Z,166.38
2023-04-19T02:03:04.140Z,159.52
2023-04-19T02:05:30.766Z,160.25
2023-04-19T02:07:57.699Z,158.40
2023-04-19T02:10:24.307Z,153.82
2023-04-19T02:12:50.821Z,154.40
2023-04-19T02:15:17.288Z,148.77
2023-04-19T02:17:44.298Z,141.23
2023-04-19T02:20:11.318Z,145.35
2023-04-19T02:22:38.239Z,144.93
2023-04-19T02:25:05.129Z,138.85
2023-04-19T02:27:31.929Z,138.40
2023-04-19T02:29:58.566Z,134.48
2023-04-19T02:32:25.173Z,136.45
2023-04-19T02:34:51.717Z,134.38
2023-04-19T02:37:18.367Z,130.85
2023-04-19T02:39:44.965Z,124.45
2023-04-19T02:42:11.618Z,124.53
2023-04-19T02:44:38.064Z,122.00
2023-04-19T02:47:04.618Z,120.25
2023-04-19T02:49:31.337Z,119.55
2023-04-19T02:51:58.074Z,114.38
2023-04-19T02:54:24.620Z,112.57
2023-04-19T02:56:51.153Z,110.72
2023-04-19T02:59:17.698Z,111.88
2023-04-19T03:01:44.286Z,108.22
2023-04-19T03:04:10.803Z,107.97
2023-04-19T03:06:37.306Z,111.00
2023-04-19T03:09:03.756Z,103.82
2023-04-19T03:11:30.309Z,101.00
2023-04-19T03:13:56.749Z,104.45
2023-04-19T03:16:23.699Z,100.45
2023-04-19T03:18:50.555Z,97.78
2023-04-19T03:21:17.114Z,97.72
2023-04-19T03:23:43.610Z,92.93
2023-04-19T03:26:10.113Z,90.45
2023-04-19T03:28:36.656Z,91.43
2023-04-19T03:31:03.273Z,90.53
2023-04-19T03:33:30.054Z,87.32
2023-04-19T03:35:56.682Z,84.72
2023-04-19T03:38:23.200Z,84.15
2023-04-19T03:40:49.772Z,81.10
2023-04-19T03:43:16.279Z,81.07
2023-04-19T03:45:43.132Z,79.80
2023-04-19T03:48:09.607Z,79.43
2023-04-19T03:50:36.276Z,78.03
2023-04-19T03:53:02.830Z,74.82
2023-04-19T03:55:29.379Z,77.00
2023-04-19T03:57:55.897Z,73.97
2023-04-19T04:00:22.379Z,73.00
2023-04-19T04:02:51.444Z,72.50
2023-04-19T04:05:18.325Z,70.70
2023-04-19T04:07:44.862Z,72.50
2023-04-19T04:10:11.354Z,69.60
2023-04-19T04:12:37.951Z,71.85
2023-04-19T04:15:04.594Z,67.35
2023-04-19T04:17:31.317Z,66.00
2023-04-19T04:19:57.817Z,66.18
2023-04-19T04:22:24.364Z,63.72
2023-04-19T04:24:51.005Z,65.47
2023-04-19T04:27:17.502Z,62.22
2023-04-19T04:29:44.253Z,58.03
2023-04-19T04:32:11.371Z,62.88
2023-04-19T04:34:38.085Z,59.88
2023-04-19T04:37:04.576Z,60.47
2023-04-19T04:39:31.225Z,59.33
2023-04-19T04:41:57.768Z,54.70
2023-04-19T04:44:24.663Z,57.08
2023-04-19T04:46:51.306Z,52.22
2023-04-19T04:49:17.845Z,54.22
2023-04-19T04:51:44.509Z,53.72
2023-04-19T04:54:11.097Z,51.00
2023-04-19T04:56:37.714Z,53.88
2023-04-19T04:59:04.240Z,52.00
2023-04-19T05:01:30.687Z,47.75
2023-04-19T05:03:57.900Z,46.72
2023-04-19T05:06:24.578Z,47.88
2023-04-19T05:08:51.119Z,49.55
2023-04-19T05:11:17.597Z,47.58
2023-04-19T05:13:44.366Z,46.17
2023-04-19T05:16:10.935Z,47.00
2023-04-19T05:18:37.785Z,43.67
2023-04-19T05:21:05.000Z,42.63
2023-04-19T05:23:31.873Z,41.80
2023-04-19T05:25:58.355Z,42.03
2023-04-19T05:28:24.840Z,39.97
2023-04-19T05:30:51.606Z,37.83
2023-04-19T05:33:18.309Z,38.70
2023-04-19T05:35:45.173Z,36.17
2023-04-19T05:38:11.993Z,33.30
2023-04-19T05:40:38.431Z,33.30
2023-04-19T05:43:05.014Z,33.05
2023-04-19T05:45:31.705Z,30.80
2023-04-19T05:47:58.322Z,28.00
2023-04-19T05:50:25.084Z,30.30
2023-04-19T05:52:51.664Z,25.15
2023-04-19T05:55:18.335Z,31.83
2023-04-19T05:57:45.303Z,26.75
2023-04-19T06:00:12.069Z,27.50
2023-04-19T06:02:38.672Z,30.67
2023-04-19T06:05:09.999Z,29.15
2023-04-19T06:07:43.228Z,27.10
2023-04-19T06:10:13.400Z,30.02
2023-04-19T06:12:40.027Z,26.88
2023-04-19T06:15:06.583Z,30.98
2023-04-19T06:17:33.284Z,27.70
2023-04-19T06:19:59.811Z,27.02
2023-04-19T06:22:26.285Z,26.13
2023-04-19T06:24:52.994Z,22.55
2023-04-19T06:27:19.531Z,31.60
2023-04-19T06:29:46.001Z,23.33
2023-04-19T06:32:12.790Z,23.23
2023-04-19T06:34:39.486Z,27.17
2023-04-19T06:37:06.162Z,26.60
2023-04-19T06:39:32.654Z,23.20
2023-04-19T06:41:59.614Z,33.88
2023-04-19T06:44:25.987Z,32.67
2023-04-19T06:46:52.571Z,34.35
2023-04-19T06:49:19.086Z,37.40
2023-04-19T06:51:45.613Z,42.60
2023-04-19T06:54:12.482Z,44.67
2023-04-19T06:56:39.682Z,39.10
2023-04-19T06:59:06.198Z,46.22
2023-04-19T07:01:32.899Z,38.50
2023-04-19T07:03:59.628Z,42.67
2023-04-19T07:06:26.189Z,43.72
2023-04-19T07:08:52.907Z,59.03
2023-04-19T07:11:20.485Z,72.22
2023-04-19T07:13:48.671Z,82.55
2023-04-19T07:16:15.200Z,69.32
2023-04-19T07:18:41.967Z,77.18
2023-04-19T07:21:08.402Z,86.63
2023-04-19T07:23:35.254Z,70.32
2023-04-19T07:26:01.646Z,70.72
2023-04-19T07:28:28.129Z,68.30
2023-04-19T07:30:54.566Z,62.38
2023-04-19T07:33:20.983Z,54.72
2023-04-19T07:35:47.733Z,60.28
2023-04-19T07:38:14.123Z,62.60
2023-04-19T07:40:41.012Z,56.90
2023-04-19T07:43:07.297Z,57.92
2023-04-19T07:45:33.796Z,61.22
2023-04-19T07:48:00.252Z,57.67
2023-04-19T07:50:26.650Z,50.17
2023-04-19T07:52:53.043Z,56.97
2023-04-19T07:55:19.918Z,68.88
2023-04-19T07:57:46.357Z,56.47
2023-04-19T08:00:12.654Z,87.10
2023-04-19T08:02:39.317Z,110.70
2023-04-19T08:05:06.171Z,110.30
2023-04-19T08:07:32.819Z,120.55
2023-04-19T08:09:59.137Z,105.20
2023-04-19T08:12:35.135Z,102.10
2023-04-19T08:15:19.670Z,99.55
2023-04-19T08:17:51.742Z,93.88
2023-04-19T08:20:18.135Z,90.82
2023-04-19T08:22:44.565Z,90.60
2023-04-19T08:25:10.966Z,92.85
2023-04-19T08:27:37.315Z,89.45
2023-04-19T08:30:03.674Z,91.07
2023-04-19T08:32:30.254Z,81.30
2023-04-19T08:34:56.684Z,91.40
2023-04-19T08:37:23.049Z,98.15
2023-04-19T08:39:49.488Z,79.22
2023-04-19T08:42:28.811Z,85.75
2023-04-19T08:48:00.780Z,79.40
2023-04-19T08:50:33.252Z,84.50
2023-04-19T08:53:09.056Z,70.88
2023-04-19T08:56:06.992Z,84.65
2023-04-19T08:58:46.578Z,77.93
2023-04-19T09:01:31.093Z,72.78
2023-04-19T09:04:10.176Z,76.32
2023-04-19T09:06:43.752Z,70.35
2023-04-19T09:09:16.953Z,69.90
2023-04-19T09:11:51.110Z,69.88
2023-04-19T09:14:17.516Z,66.20
2023-04-19T09:16:43.921Z,62.55
2023-04-19T09:19:23.360Z,66.97
2023-04-19T09:21:51.103Z,58.63
2023-04-19T09:24:17.462Z,61.40
2023-04-19T09:26:43.825Z,63.95
2023-04-19T09:29:11.102Z,58.35
2023-04-19T09:34:07.829Z,54.53
2023-04-19T09:36:34.688Z,56.90
2023-04-19T09:39:01.003Z,50.55
2023-04-19T09:41:27.506Z,51.30
2023-04-19T09:44:11.741Z,54.42
2023-04-19T09:46:40.644Z,53.70
2023-04-19T09:49:21.216Z,48.47
2023-04-19T09:51:53.869Z,44.65
2023-04-19T09:54:20.219Z,45.15
2023-04-19T09:56:47.019Z,47.35
2023-04-19T09:59:20.649Z,50.90
2023-04-19T10:01:47.940Z,41.45
2023-04-19T10:04:25.864Z,45.63
2023-04-19T10:07:25.333Z,48.60
2023-04-19T10:09:52.913Z,49.70
2023-04-19T10:14:57.594Z,45.10
2023-04-19T10:17:23.932Z,43.88
2023-04-19T10:19:50.429Z,42.28
2023-04-19T10:22:16.796Z,38.85
2023-04-19T10:24:44.656Z,43.78
2023-04-19T10:27:11.948Z,40.08
2023-04-19T10:29:38.551Z,39.95
2023-04-19T10:32:04.943Z,42.67
2023-04-19T10:34:31.915Z,47.60
2023-04-19T10:36:58.365Z,36.42
2023-04-19T10:39:25.028Z,40.28
2023-04-19T10:41:51.606Z,39.13
2023-04-19T10:44:17.906Z,39.42
2023-04-19T10:46:44.269Z,35.92
2023-04-19T10:49:11.178Z,33.53
2023-04-19T10:51:38.264Z,38.42
2023-04-19T10:54:05.022Z,33.88
2023-04-19T10:56:31.881Z,34.38
2023-04-19T10:58:58.446Z,34.38
2023-04-19T11:01:24.834Z,34.97
2023-04-19T11:03:51.372Z,29.15
2023-04-19T11:06:17.828Z,32.28
2023-04-19T11:08:44.499Z,481.48
2023-04-19T11:11:11.233Z,421.90
2023-04-19T11:13:37.577Z,330.15
2023-04-19T11:16:04.266Z,294.65
2023-04-19T11:18:30.788Z,258.75
2023-04-19T11:20:57.620Z,243.75
2023-04-19T11:23:23.960Z,231.27
2023-04-19T11:25:51.132Z,216.02
2023-04-19T11:28:17.595Z,643.65
2023-04-19T11:30:44.283Z,526.25
2023-04-19T11:33:10.600Z,446.48
2023-04-19T11:35:37.389Z,456.42
2023-04-19T11:38:04.495Z,435.30
2023-04-19T11:40:30.972Z,411.75
2023-04-19T11:42:57.337Z,371.95
2023-04-19T11:47:53.425Z,364.15
2023-04-19T11:50:19.983Z,350.13
2023-04-19T11:52:46.405Z,471.88
2023-04-19T11:55:13.000Z,646.63
2023-04-19T11:57:41.524Z,602.60
2023-04-19T12:00:08.339Z,501.17
2023-04-19T12:02:35.249Z,484.23
2023-04-19T12:05:02.062Z,469.90
2023-04-19T12:07:28.937Z,457.23
2023-04-19T12:09:55.428Z,446.50
2023-04-19T12:12:21.846Z,443.42
2023-04-19T12:14:48.188Z,425.73
2023-04-19T12:17:14.806Z,419.80
2023-04-19T12:19:41.615Z,415.20
2023-04-19T12:22:08.121Z,417.23
2023-04-19T12:24:34.427Z,404.58
2023-04-19T12:27:01.898Z,400.25
2023-04-19T12:29:29.603Z,392.85
2023-04-19T12:31:56.093Z,382.55
2023-04-19T12:34:22.639Z,374.83
2023-04-19T12:36:49.261Z,368.83
2023-04-19T12:39:16.065Z,368.58
2023-04-19T12:41:42.549Z,355.60
2023-04-19T12:44:08.867Z,350.13
2023-04-19T12:46:35.706Z,335.35
2023-04-19T12:49:02.263Z,339.02
2023-04-19T12:51:28.793Z,332.65
2023-04-19T12:53:55.227Z,334.02
2023-04-19T12:56:21.940Z,328.13
2023-04-19T12:58:48.540Z,322.67
2023-04-19T13:01:15.012Z,320.17
2023-04-19T13:03:41.823Z,311.20
2023-04-19T13:06:08.338Z,307.02
2023-04-19T13:08:44.854Z,311.75
2023-04-19T13:11:13.003Z,301.13
2023-04-19T13:13:39.332Z,293.67
2023-04-19T13:16:05.856Z,295.45
2023-04-19T13:18:32.221Z,288.85
2023-04-19T13:20:59.170Z,286.38
2023-04-19T13:23:25.532Z,277.77
2023-04-19T13:25:51.932Z,282.45
2023-04-19T13:28:18.261Z,274.73
2023-04-19T13:30:45.045Z,269.23
2023-04-19T13:33:11.468Z,254.40
2023-04-19T13:35:37.976Z,256.17
2023-04-19T13:38:04.435Z,255.90
2023-04-19T13:40:30.959Z,236.15
2023-04-19T13:42:57.386Z,243.98
2023-04-19T13:45:23.743Z,237.43
2023-04-19T13:47:50.141Z,236.20
2023-04-19T13:50:16.463Z,227.88
2023-04-19T13:52:43.038Z,224.80
2023-04-19T13:55:09.514Z,220.10
2023-04-19T13:57:36.214Z,223.65
2023-04-19T14:00:02.661Z,216.93
2023-04-19T14:02:29.721Z,217.13
2023-04-19T14:04:56.138Z,201.63
2023-04-19T14:07:22.641Z,202.30
2023-04-19T14:09:49.547Z,195.13
2023-04-19T14:12:16.550Z,202.32
2023-04-19T14:14:42.865Z,197.48
2023-04-19T14:17:09.588Z,194.73
2023-04-19T14:19:35.915Z,193.10
2023-04-19T14:22:02.236Z,187.98
2023-04-19T14:24:28.986Z,192.15
2023-04-19T14:27:07.247Z,180.95
2023-04-19T14:29:36.911Z,186.75
2023-04-19T14:32:17.206Z,176.07
2023-04-19T14:34:49.620Z,174.40
2023-04-19T14:37:16.023Z,179.50
2023-04-19T14:39:42.739Z,172.88
2023-04-19T14:42:09.572Z,172.32
2023-04-19T14:44:35.955Z,175.15
2023-04-19T14:47:02.694Z,170.90
2023-04-19T14:49:29.036Z,163.85
2023-04-19T14:51:55.338Z,162.30
2023-04-19T14:54:22.071Z,164.07
2023-04-19T14:56:48.447Z,160.77
2023-04-19T14:59:15.096Z,157.18
2023-04-19T15:01:42.167Z,161.98
2023-04-19T15:04:08.917Z,157.68
2023-04-19T15:06:35.397Z,158.05
2023-04-19T15:09:02.061Z,153.40
2023-04-19T15:11:28.474Z,151.13
2023-04-19T15:13:54.945Z,147.77
2023-04-19T15:16:21.425Z,148.65
2023-04-19T15:18:48.374Z,150.40
2023-04-19T15:21:15.062Z,141.55
2023-04-19T15:23:42.198Z,143.48
2023-04-19T15:26:08.591Z,142.65
2023-04-19T15:28:35.359Z,141.90
2023-04-19T15:31:01.803Z,129.13
2023-04-19T15:33:28.665Z,124.63
2023-04-19T15:35:54.964Z,123.80
2023-04-19T15:38:21.467Z,126.70
2023-04-19T15:40:48.512Z,118.03
2023-04-19T15:43:15.392Z,118.75
2023-04-19T15:45:42.377Z,115.32
2023-04-19T15:48:08.732Z,116.35
2023-04-19T15:50:35.296Z,112.00
2023-04-19T15:53:01.924Z,114.15
2023-04-19T15:55:28.486Z,111.75
2023-04-19T15:57:55.236Z,110.82
2023-04-19T16:00:21.553Z,102.22
2023-04-19T16:02:48.336Z,103.43
2023-04-19T16:05:15.047Z,101.57
2023-04-19T16:07:41.513Z,101.43
2023-04-19T16:10:07.837Z,97.68
2023-04-19T16:12:34.539Z,98.68
2023-04-19T16:15:01.290Z,94.95
2023-04-19T16:17:28.188Z,89.55
2023-04-19T16:19:54.677Z,91.07
2023-04-19T16:22:21.033Z,92.53
2023-04-19T16:24:47.957Z,88.63
2023-04-19T16:27:14.324Z,89.38
2023-04-19T16:29:40.643Z,88.63
2023-04-19T16:32:07.228Z,84.95
2023-04-19T16:34:34.117Z,86.85
2023-04-19T16:37:00.934Z,85.88
2023-04-19T16:39:27.337Z,81.72
2023-04-19T16:41:53.988Z,79.90
2023-04-19T16:44:20.438Z,83.05
2023-04-19T16:46:46.731Z,76.25
2023-04-19T16:49:13.139Z,81.05
2023-04-19T16:51:40.311Z,74.47
2023-04-19T16:54:07.391Z,75.05
2023-04-19T16:56:33.820Z,70.53
2023-04-19T16:59:00.572Z,69.65
2023-04-19T17:01:26.991Z,68.70
2023-04-19T17:03:53.677Z,70.95
2023-04-19T17:06:20.762Z,68.93
2023-04-19T17:08:47.073Z,67.70
2023-04-19T17:11:14.115Z,65.57
2023-04-19T17:13:40.534Z,64.00
2023-04-19T17:16:07.309Z,62.63
2023-04-19T17:18:33.988Z,62.83
2023-04-19T17:21:00.822Z,63.85
2023-04-19T17:23:27.539Z,59.28
2023-04-19T17:25:54.068Z,64.15
2023-04-19T17:28:20.666Z,62.38
2023-04-19T17:30:47.449Z,58.90
2023-04-19T17:33:13.969Z,57.75
2023-04-19T17:35:40.313Z,57.47
2023-04-19T17:38:07.038Z,57.50
2023-04-19T17:40:33.844Z,54.55
2023-04-19T17:43:00.520Z,53.22
2023-04-19T17:45:27.038Z,53.15
2023-04-19T17:47:55.316Z,52.70
2023-04-19T17:50:22.492Z,53.42
2023-04-19T17:52:49.623Z,53.97
2023-04-19T17:55:16.252Z,51.50
2023-04-19T17:57:42.743Z,52.72
2023-04-19T18:00:09.089Z,49.28
2023-04-19T18:02:35.964Z,51.45
2023-04-19T18:05:02.763Z,55.63
2023-04-19T18:07:29.271Z,50.33
2023-04-19T18:09:55.588Z,47.10
2023-04-19T18:12:22.076Z,48.97
2023-04-19T18:14:48.418Z,51.42
2023-04-19T18:17:14.791Z,48.45
2023-04-19T18:19:41.533Z,43.70
2023-04-19T18:22:08.189Z,47.47
2023-04-19T18:24:34.696Z,49.35
2023-04-19T18:27:01.339Z,45.85
2023-04-19T18:29:27.657Z,47.03
2023-04-19T18:31:54.691Z,45.00
2023-04-19T18:34:21.556Z,45.60
2023-04-19T18:36:47.950Z,47.40
2023-04-19T18:39:14.459Z,44.55
2023-04-19T18:41:41.055Z,44.13
2023-04-19T18:44:34.758Z,43.20
2023-04-19T18:46:53.885Z,45.20
2023-04-19T18:49:20.320Z,43.08
2023-04-19T18:51:46.946Z,41.70
2023-04-19T18:54:13.574Z,42.83
2023-04-19T18:57:14.785Z,40.63
2023-04-19T18:59:26.537Z,41.03
2023-04-19T19:01:53.167Z,39.05
2023-04-19T19:04:37.186Z,39.22
2023-04-19T19:07:18.174Z,39.58
2023-04-19T19:09:56.164Z,38.00
2023-04-19T19:12:23.170Z,41.15
2023-04-19T19:14:49.663Z,35.83
2023-04-19T19:17:16.703Z,37.35
2023-04-19T19:19:43.139Z,38.70
2023-04-19T19:22:25.008Z,34.28
2023-04-19T19:24:54.036Z,36.13
2023-04-19T19:27:20.421Z,34.38
2023-04-19T19:29:47.034Z,35.00
2023-04-19T19:32:13.804Z,32.95
2023-04-19T19:34:53.770Z,34.88
2023-04-19T19:37:21.044Z,34.17
2023-04-19T19:39:47.359Z,38.40
2023-04-19T19:42:14.096Z,36.83
2023-04-19T19:44:41.131Z,34.83
2023-04-19T19:47:10.211Z,33.42
2023-04-19T19:49:49.523Z,32.92
2023-04-19T19:52:23.371Z,33.80
2023-04-19T19:54:49.833Z,32.28
2023-04-19T19:59:51.363Z,30.48
2023-04-19T20:02:19.458Z,30.58
2023-04-19T20:04:46.092Z,29.30
2023-04-19T20:07:28.853Z,33.22
2023-04-19T20:09:59.146Z,28.75
2023-04-19T20:12:25.552Z,28.25
2023-04-19T20:14:51.928Z,29.90
2023-04-19T20:17:18.941Z,30.88
2023-04-19T20:19:45.364Z,30.00
2023-04-19T20:22:11.713Z,28.67
2023-04-19T20:24:38.572Z,26.20
2023-04-19T20:27:05.020Z,28.70
2023-04-19T20:29:31.350Z,27.48
2023-04-19T20:31:57.841Z,27.80
2023-04-19T20:34:24.313Z,25.30
2023-04-19T20:36:50.644Z,28.20
2023-04-19T20:39:17.673Z,24.83
2023-04-19T20:41:44.079Z,28.75
2023-04-19T20:44:10.488Z,26.50
2023-04-19T20:46:37.022Z,28.38
2023-04-19T20:49:03.551Z,25.08
2023-04-19T20:51:30.343Z,24.38
2023-04-19T20:53:57.227Z,27.05
2023-04-19T20:56:23.765Z,25.02
2023-04-19T20:58:50.262Z,24.52
2023-04-19T21:01:16.638Z,23.77
2023-04-19T21:03:43.486Z,26.38
2023-04-19T21:06:10.305Z,25.08
2023-04-19T21:08:37.218Z,24.48
2023-04-19T21:11:03.614Z,24.52
2023-04-19T21:13:30.256Z,25.08
2023-04-19T21:15:56.622Z,23.55
2023-04-19T21:18:23.475Z,22.95
2023-04-19T21:20:49.985Z,23.08
2023-04-19T21:23:16.809Z,22.70
2023-04-19T21:25:43.993Z,22.92
2023-04-19T21:28:10.480Z,22.38
2023-04-19T21:30:36.792Z,23.83
2023-04-19T21:33:03.962Z,21.50
2023-04-19T21:35:30.631Z,22.10
2023-04-19T21:37:56.961Z,21.55
2023-04-19T21:40:23.380Z,21.80
2023-04-19T21:42:50.256Z,21.58
2023-04-19T21:45:17.085Z,22.45
2023-04-19T21:47:44.138Z,22.35
2023-04-19T21:50:11.357Z,21.65
2023-04-19T21:52:38.206Z,20.55
2023-04-19T21:55:05.034Z,21.48
2023-04-19T21:57:31.423Z,21.45
2023-04-19T21:59:58.264Z,20.92
2023-04-19T22:02:24.786Z,20.58
2023-04-19T22:04:51.551Z,20.55
2023-04-19T22:07:18.112Z,20.27
2023-04-19T22:09:44.420Z,21.30
2023-04-19T22:12:10.854Z,19.02
2023-04-19T22:14:37.154Z,20.10
2023-04-19T22:17:03.553Z,19.77
2023-04-19T22:19:30.275Z,19.67
2023-04-19T22:21:56.603Z,18.98
2023-04-19T22:24:23.025Z,20.35
2023-04-19T22:26:49.480Z,20.77
2023-04-19T22:29:16.309Z,19.88
2023-04-19T22:31:42.816Z,18.45
2023-04-19T22:34:09.280Z,20.27
2023-04-19T22:36:35.761Z,19.17
2023-04-19T22:39:03.097Z,21.20
2023-04-19T22:41:29.892Z,19.80
2023-04-19T22:43:56.416Z,18.40
2023-04-19T22:46:22.789Z,20.40
2023-04-19T22:48:49.188Z,19.85
2023-04-19T22:51:15.981Z,18.88
2023-04-19T22:53:42.324Z,19.33
2023-04-19T22:56:08.651Z,17.30
2023-04-19T22:58:35.112Z,18.42
2023-04-19T23:01:01.579Z,18.08
2023-04-19T23:03:28.150Z,18.27
2023-04-19T23:05:54.543Z,19.50
2023-04-19T23:08:21.285Z,19.60
2023-04-19T23:10:47.784Z,17.70
2023-04-19T23:13:14.212Z,18.63
2023-04-19T23:15:41.141Z,19.30
2023-04-19T23:18:07.616Z,17.85
2023-04-19T23:20:34.050Z,20.15
2023-04-19T23:23:00.915Z,18.25
2023-04-19T23:25:27.370Z,19.88
2023-04-19T23:27:54.591Z,19.52
2023-04-19T23:30:20.978Z,18.60
2023-04-19T23:32:47.548Z,18.38
2023-04-19T23:35:13.986Z,18.45
2023-04-19T23:37:40.718Z,18.08
2023-04-19T23:40:07.157Z,20.65
2023-04-19T23:42:33.705Z,17.70
2023-04-19T23:45:00.155Z,18.60
2023-04-19T23:47:26.777Z,17.75
2023-04-19T23:49:53.381Z,18.40
2023-04-19T23:52:19.743Z,19.35
2023-04-19T23:54:46.722Z,20.20
2023-04-19T23:57:13.097Z,18.25
2023-04-19T23:59:39.494Z,18.58
